Aviation Digital Data Service (ADDS)

Output produced by METARs form (1907 UTC 22 May 2015)
found at http://www.aviationweather.gov/adds/metars/
 
METAR text: EPBY 221900Z VRB01KT CAVOK 14/05 Q1022
Conditions at: EPBY (BYDGOSZDZ , PL) observed 1900 UTC 22 May 2015
Temperature: 14.0°C (57°F)
Dewpoint: 5.0°C (41°F) [RH = 55%]
Pressure (altimeter): 30.18 inches Hg (1022.0 mb)
Winds: variable direction winds at 1 MPH (1 knots; 0.5 m/s)
Visibility: 6 or more miles (10+ km)
Ceiling: ceiling and visibility are OK
Clouds: unknown
Weather: no significant weather observed at this time

Forecast for: EPBY (BYDGOSZDZ , PL)
Text: TAF EPBY 221730Z 2218/2303 VRB04KT CAVOK
Forecast period: 1800 UTC 22 May 2015 to 0300 UTC 23 May 2015
Forecast type: FROM: standard forecast or significant change
Winds: variable direction winds at 5 MPH (4 knots; 2.1 m/s)
Visibility: 6 or more miles (10+ km)
Clouds: not forecast
Weather: NSW  (no significant weather)